X  Chiuso Dati meteorologici dell'aviazione (METAR)     EHGG Eelde Airport
Temperatura
7°C Temperatura
7°C Punto di rugiada
100% Umidità



Vento
3 KM/O
2 MPH
1 M/S
2 KTS



Calmo
Nord
Condizioni attuali

Prevalentemente nuvoloso Prevalentemente nuvoloso
Pressione 1027.92 (hPa) - 30.35 (inHg)
Visibilità 6.2 (miglio) - 10 (km)
Aeroporto
Codice-Aeroporto EHGG

Posizione: Eelde Airport
Distanza: 40 (km)

Metar:
EHGG 231925Z AUTO VRB02KT 9999 BKN020 OVC023 07/07 Q1028 TEMPO 2000 BR MIFG

Ore: 23-11-2021 20:25 CET